Skip Navigation Links Skip Navigation Links

Current Weather

Waterloo Well, Ont.

For information only: do not use for flight planning or navigation.
Latest weather
Observation time Friday, January 21, 2022 2:00 PM EST
Local time Friday, January 21, 2022 3:13 PM EST
Flight conditions Visual Meteorological Conditions
Winds
Wind direction variable
Wind speed 2 mph
Visibility 9 mi.
Sky condition
Ceiling unlimited
Sky clear
Temperature 12°F
Dewpoint 1°F
Altimeter 30.55 in.Hg
Derived measurements
Relative humidity 61%
Wind chill 12°F
Density altitude -3638 ft.
Sea-level pressure 30.64 in.Hg
Remarks
Fully automated report.
METAR CYKF 211900Z AUTO VRB02KT 9SM CLR M11/M17 A3055 RMK SLP377

Settings

Location code

InnerDrive.Weather 4.0.6770.0 Release CLR 4.0.30319.42000
Copyright ©2018 Inner Drive Technology. All rights reserved. Portions Copyright ©1986-2018 David Braverman.

Find weather

Site navigation


Skip Navigation Links

Place info

Page info

PayPal - The safer, easier way to pay online!

Return home.

Copyright ©2022 Inner Drive Technology. Purveyors of fine, hand-crafted computer software. Page printed 2022-01-21T20:13:16 UTC.